Time;durP1;ratioP1;P1;durP2;ratioP2;P2;SDS_P1;SDS_P2;PMS_P1;PMS_P2;Temp;Humidity;BMP_temperature;BMP_pressure;BME280_temperature;BME280_humidity;BME280_pressure;Samples;Min_cycle;Max_cycle;Signal;HPM_P1;HPM_P2
2023/02/06 00:01:16;;;;;;;1.55;1.10;;;;;;;-1.83;56.84;102695.41;5077424;28;20042;-92
2023/02/06 00:03:42;;;;;;;0.65;0.65;;;;;;;-1.67;56.89;102699.38;5094427;28;20030;-94
2023/02/06 00:06:07;;;;;;;2.15;1.27;;;;;;;-1.58;55.67;102703.84;5077460;28;20027;-92
2023/02/06 00:08:33;;;;;;;0.85;0.82;;;;;;;-1.77;55.85;102707.44;5077276;28;20527;-92
2023/02/06 00:11:02;;;;;;;1.30;0.73;;;;;;;-1.75;56.60;102718.53;5077342;28;20027;-93
2023/02/06 00:13:28;;;;;;;1.10;0.90;;;;;;;-1.80;57.55;102703.13;5077296;28;20027;-93
2023/02/06 00:15:53;;;;;;;0.45;0.45;;;;;;;-1.82;56.53;102708.97;5077451;28;20039;-91
2023/02/06 00:18:18;;;;;;;1.08;0.82;;;;;;;-1.88;58.16;102708.75;5077550;28;20032;-93
2023/02/06 00:20:44;;;;;;;0.70;0.70;;;;;;;-1.90;56.84;102712.91;5077367;28;20487;-93
2023/02/06 00:23:09;;;;;;;1.92;1.35;;;;;;;-1.93;57.20;102700.97;5077225;28;20027;-93
2023/02/06 00:25:35;;;;;;;1.10;1.00;;;;;;;-1.95;56.67;102711.88;5077114;28;20088;-92
2023/02/06 00:28:00;;;;;;;0.55;0.55;;;;;;;-1.88;58.06;102718.88;5077236;28;20035;-92
2023/02/06 00:30:26;;;;;;;1.75;0.52;;;;;;;-1.87;58.04;102715.53;5077262;28;20410;-93
2023/02/06 00:32:51;;;;;;;1.42;1.33;;;;;;;-1.84;57.61;102720.75;5093765;28;20048;-93
2023/02/06 00:35:17;;;;;;;0.50;0.50;;;;;;;-1.87;57.50;102715.53;5077311;28;20028;-93
2023/02/06 00:37:42;;;;;;;0.50;0.50;;;;;;;-1.91;56.97;102719.66;5077069;28;20050;-93
2023/02/06 00:40:08;;;;;;;1.38;1.27;;;;;;;-1.88;57.40;102718.88;5080897;28;20118;-92
2023/02/06 00:42:34;;;;;;;0.60;0.52;;;;;;;-1.89;56.77;102714.63;5098093;28;20092;-93
2023/02/06 00:44:59;;;;;;;0.38;0.38;;;;;;;-1.96;58.05;102716.09;5081213;28;20031;-94
2023/02/06 00:47:25;;;;;;;0.63;0.63;;;;;;;-1.99;57.26;102725.25;5081119;28;20050;-94
2023/02/06 00:49:50;;;;;;;1.20;0.55;;;;;;;-2.04;57.23;102728.50;5081144;28;20080;-93
2023/02/06 00:52:15;;;;;;;1.70;1.60;;;;;;;-2.05;58.53;102721.69;5097920;28;20032;-94
2023/02/06 00:54:41;;;;;;;0.82;0.82;;;;;;;-1.94;58.24;102733.91;5081032;28;20495;-94
2023/02/06 00:57:06;;;;;;;1.65;0.95;;;;;;;-1.93;58.70;102738.16;5080787;28;20089;-94
2023/02/06 00:59:32;;;;;;;5.15;1.52;;;;;;;-1.92;58.14;102742.44;5080926;28;20059;-93
2023/02/06 01:01:57;;;;;;;2.65;1.88;;;;;;;-1.89;57.70;102732.38;5080793;28;20425;-92
2023/02/06 01:04:23;;;;;;;2.05;1.90;;;;;;;-1.87;57.81;102730.75;5114725;28;20024;-92
2023/02/06 01:06:48;;;;;;;0.98;0.70;;;;;;;-1.79;56.62;102740.38;5080956;28;20035;-93
2023/02/06 01:09:14;;;;;;;2.53;1.50;;;;;;;-1.91;55.66;102739.09;5080760;28;20051;-93
2023/02/06 01:11:39;;;;;;;1.05;0.50;;;;;;;-2.00;56.29;102738.75;5080260;28;20028;-93
2023/02/06 01:14:04;;;;;;;0.40;0.40;;;;;;;-1.96;56.65;102741.47;5080609;28;20474;-93
2023/02/06 01:16:30;;;;;;;0.75;0.75;;;;;;;-1.99;57.59;102735.41;5080520;28;20031;-92
2023/02/06 01:18:55;;;;;;;1.58;1.48;;;;;;;-2.06;56.96;102730.13;5080494;28;20023;-93
2023/02/06 01:21:22;;;;;;;1.10;1.00;;;;;;;-2.12;56.87;102736.63;5097592;28;20474;-92
2023/02/06 01:23:48;;;;;;;0.85;0.52;;;;;;;-2.09;56.69;102729.13;5097400;28;20027;-93
2023/02/06 01:26:15;;;;;;;0.85;0.43;;;;;;;-2.20;55.50;102733.81;5114235;27;20577;-93
2023/02/06 01:28:42;;;;;;;1.00;0.88;;;;;;;-2.24;56.70;102723.50;5080509;28;20035;-94
2023/02/06 01:31:25;;;;;;;0.90;0.82;;;;;;;-2.24;56.73;102724.38;5080387;28;20118;-93
2023/02/06 01:33:50;;;;;;;0.88;0.85;;;;;;;-2.26;56.13;102731.06;5080283;28;20456;-94
2023/02/06 01:36:18;;;;;;;0.20;0.20;;;;;;;-2.25;56.99;102731.94;5080474;28;20093;-92
2023/02/06 01:38:43;;;;;;;2.15;1.15;;;;;;;-2.26;56.53;102725.09;5114158;27;20027;-93
2023/02/06 01:41:09;;;;;;;2.08;0.90;;;;;;;-2.31;57.07;102727.47;5079871;28;20032;-93
2023/02/06 01:43:38;;;;;;;1.15;1.05;;;;;;;-2.25;56.98;102725.19;5080058;28;20114;-92
2023/02/06 01:46:04;;;;;;;0.57;0.57;;;;;;;-2.21;56.43;102729.56;5097053;28;20027;-92
2023/02/06 01:48:33;;;;;;;2.55;1.58;;;;;;;-2.24;56.85;102723.50;5113845;27;20493;-92
2023/02/06 01:50:58;;;;;;;0.40;0.40;;;;;;;-2.32;56.25;102730.81;5079368;28;20024;-92
2023/02/06 01:53:24;;;;;;;1.42;1.33;;;;;;;-2.31;57.20;102732.56;5079970;28;20038;-92
2023/02/06 01:55:50;;;;;;;0.25;0.25;;;;;;;-2.33;57.47;102731.63;5079693;28;20034;-93
2023/02/06 01:58:29;;;;;;;0.47;0.43;;;;;;;-2.26;57.12;102733.59;5096738;28;20069;-93
2023/02/06 02:00:55;;;;;;;0.95;0.75;;;;;;;-2.33;57.69;102726.56;5081250;28;20024;-92
2023/02/06 02:03:21;;;;;;;2.22;1.40;;;;;;;-2.36;57.14;102734.94;5079651;28;20038;-92
2023/02/06 02:05:46;;;;;;;1.60;1.15;;;;;;;-2.42;56.54;102731.28;5079709;28;20032;-92
2023/02/06 02:08:23;;;;;;;3.72;2.47;;;;;;;-2.71;56.76;102684.56;5079453;28;20106;-92
2023/02/06 02:10:49;;;;;;;1.55;1.45;;;;;;;-2.54;56.87;102738.44;5080198;28;20023;-92
2023/02/06 02:13:14;;;;;;;0.57;0.57;;;;;;;-2.65;57.00;102721.16;5096086;28;20027;-93
2023/02/06 02:15:54;;;;;;;2.50;1.85;;;;;;;-2.52;56.55;102741.88;5079562;28;20475;-93
2023/02/06 02:18:39;;;;;;;1.38;0.98;;;;;;;-2.64;57.59;102730.47;5096251;28;20023;-92
2023/02/06 02:21:10;;;;;;;3.72;1.00;;;;;;;-2.58;56.38;102736.56;5098316;28;20031;-92
2023/02/06 02:23:55;;;;;;;0.95;0.85;;;;;;;-2.75;56.62;102698.78;5112949;28;20027;-92
2023/02/06 02:26:43;;;;;;;3.20;1.35;;;;;;;-2.60;56.51;102718.78;5096502;28;20035;-92
2023/02/06 02:29:33;;;;;;;1.85;1.05;;;;;;;-2.50;56.77;102735.19;5096152;28;20475;-92
2023/02/06 02:32:08;;;;;;;3.95;1.40;;;;;;;-2.47;55.74;102740.38;5112685;28;20055;-93
2023/02/06 02:34:56;;;;;;;1.52;1.35;;;;;;;-2.71;56.87;102731.03;5096201;28;20027;-93
2023/02/06 02:37:37;;;;;;;0.90;0.90;;;;;;;-2.55;56.15;102749.38;5079324;28;20045;-92
2023/02/06 02:40:18;;;;;;;4.05;2.10;;;;;;;-2.77;56.01;102733.31;5095772;28;20027;-92
2023/02/06 02:43:03;;;;;;;0.73;0.73;;;;;;;-2.98;55.97;102702.06;5079668;28;20028;-92
2023/02/06 02:45:45;;;;;;;0.75;0.75;;;;;;;-2.79;55.46;102737.47;5097927;28;20028;-93
2023/02/06 02:48:17;;;;;;;1.30;1.20;;;;;;;-2.85;56.26;102746.47;5080956;28;20031;-93
2023/02/06 02:50:42;;;;;;;1.53;1.23;;;;;;;-3.07;56.91;102739.69;5096141;28;20061;-92
2023/02/06 02:53:08;;;;;;;0.70;0.70;;;;;;;-3.02;56.94;102745.81;5078394;28;20289;-94
2023/02/06 02:55:33;;;;;;;1.98;1.58;;;;;;;-3.11;57.03;102738.72;5095642;28;20027;-91
2023/02/06 02:58:09;;;;;;;1.45;0.65;;;;;;;-3.08;57.18;102755.69;5078770;28;20401;-92
2023/02/06 03:00:50;;;;;;;0.82;0.80;;;;;;;-3.06;57.32;102749.00;5080006;28;20172;-92
2023/02/06 03:03:16;;;;;;;1.20;1.10;;;;;;;-3.05;57.81;102753.28;5112588;27;20091;-93
2023/02/06 03:06:21;;;;;;;2.10;1.67;;;;;;;-3.31;57.66;102714.25;5078716;28;20038;-94
2023/02/06 03:09:10;;;;;;;1.15;1.08;;;;;;;-3.07;57.61;102757.41;5041167;28;20044;-95
2023/02/06 03:11:38;;;;;;;0.88;0.88;;;;;;;-3.15;58.33;102754.56;5078731;28;20031;-91
2023/02/06 03:14:26;;;;;;;1.98;1.83;;;;;;;-3.12;57.76;102769.03;5078566;28;20032;-93
2023/02/06 03:17:03;;;;;;;0.85;0.82;;;;;;;-3.18;57.61;102767.97;5095251;28;20065;-92
2023/02/06 03:19:32;;;;;;;1.00;0.88;;;;;;;-3.44;56.90;102719.59;5079680;28;20027;-94
2023/02/06 03:21:57;;;;;;;0.75;0.75;;;;;;;-3.20;56.73;102766.19;5111894;28;20028;-92
2023/02/06 03:24:24;;;;;;;1.35;1.25;;;;;;;-3.17;56.68;102751.97;5078099;28;20084;-93
2023/02/06 03:26:51;;;;;;;1.35;1.08;;;;;;;-3.12;56.29;102771.56;5078202;28;20459;-93
2023/02/06 03:29:16;;;;;;;1.05;0.70;;;;;;;-3.08;56.24;102773.41;5078331;28;20027;-93
2023/02/06 03:31:45;;;;;;;1.17;1.10;;;;;;;-3.13;56.16;102769.84;5077948;28;20031;-92
2023/02/06 03:34:19;;;;;;;1.65;0.82;;;;;;;-3.15;56.95;102772.28;5111783;28;20387;-94
2023/02/06 03:36:44;;;;;;;0.82;0.73;;;;;;;-3.21;56.74;102772.91;5094259;28;20031;-94
2023/02/06 03:39:10;;;;;;;1.75;1.42;;;;;;;-3.04;56.33;102780.34;5077863;28;20077;-94
2023/02/06 03:41:36;;;;;;;1.08;0.82;;;;;;;-3.21;55.75;102745.06;5077730;28;20039;-92
2023/02/06 03:44:02;;;;;;;0.73;0.60;;;;;;;-3.29;55.83;102751.47;5094807;28;20028;-93
2023/02/06 03:46:28;;;;;;;0.77;0.50;;;;;;;-3.08;55.87;102766.69;5112015;27;20024;-93
2023/02/06 03:48:56;;;;;;;0.68;0.63;;;;;;;-3.13;55.52;102759.72;5111588;28;20028;-92
2023/02/06 03:51:25;;;;;;;4.75;2.05;;;;;;;-3.13;55.70;102764.78;5094324;28;20031;-91
2023/02/06 03:53:51;;;;;;;0.93;0.90;;;;;;;-3.33;56.15;102772.41;5111674;27;20024;-93
2023/02/06 03:56:23;;;;;;;0.65;0.55;;;;;;;-3.13;56.04;102779.97;5077565;28;20019;-92
2023/02/06 03:58:48;;;;;;;2.60;1.48;;;;;;;-3.21;56.18;102765.31;5077927;28;20027;-92
2023/02/06 04:01:14;;;;;;;1.10;1.00;;;;;;;-3.14;55.83;102773.19;5094611;28;20463;-93
2023/02/06 04:03:39;;;;;;;1.75;1.30;;;;;;;-3.19;55.98;102781.44;5077952;28;20057;-93
2023/02/06 04:06:05;;;;;;;1.70;1.35;;;;;;;-3.19;55.67;102773.84;5094217;28;20034;-93
2023/02/06 04:08:30;;;;;;;3.67;1.70;;;;;;;-3.05;55.64;102783.66;5077557;28;20027;-93
2023/02/06 04:10:56;;;;;;;9.38;2.95;;;;;;;-3.05;58.43;102791.25;5077129;28;20023;-87
2023/02/06 04:13:21;;;;;;;4.07;1.10;;;;;;;-3.21;56.08;102755.19;5092741;28;20038;-86
2023/02/06 04:15:47;;;;;;;1.35;1.25;;;;;;;-3.00;55.58;102772.94;5092977;28;20084;-87
2023/02/06 04:18:12;;;;;;;0.43;0.43;;;;;;;-2.78;55.82;102779.72;5093107;28;20033;-86
2023/02/06 04:20:39;;;;;;;1.00;0.98;;;;;;;-2.71;54.75;102779.16;5075889;28;20035;-86
2023/02/06 04:23:06;;;;;;;0.60;0.60;;;;;;;-2.67;54.42;102788.59;5074489;28;20104;-93
2023/02/06 04:25:32;;;;;;;2.92;1.60;;;;;;;-2.80;54.34;102775.41;5077384;28;20031;-93
2023/02/06 04:27:57;;;;;;;1.35;1.23;;;;;;;-2.75;54.26;102790.00;5077024;28;20024;-94
2023/02/06 04:30:23;;;;;;;2.20;1.20;;;;;;;-2.96;54.86;102761.25;5078520;28;20035;-86
2023/02/06 04:32:49;;;;;;;3.00;0.95;;;;;;;-2.74;55.36;102795.94;5109236;28;20510;-86
2023/02/06 04:35:15;;;;;;;4.50;3.13;;;;;;;-2.86;54.74;102775.16;5092538;28;20061;-84
2023/02/06 04:37:41;;;;;;;1.65;1.50;;;;;;;-2.62;54.18;102809.09;5075882;28;20485;-87
2023/02/06 04:40:06;;;;;;;2.22;1.92;;;;;;;-2.76;54.25;102798.38;5093465;28;20070;-90
2023/02/06 04:42:32;;;;;;;1.20;1.08;;;;;;;-2.73;53.77;102793.44;5093220;28;20031;-81
2023/02/06 04:44:57;;;;;;;3.50;2.38;;;;;;;-2.83;54.40;102793.03;5109363;28;20035;-81
2023/02/06 04:47:23;;;;;;;3.65;2.85;;;;;;;-2.85;55.08;102789.53;5092430;28;20053;-85
2023/02/06 04:49:48;;;;;;;8.15;4.57;;;;;;;-2.97;54.34;102767.13;5075586;28;20031;-81
2023/02/06 04:52:14;;;;;;;5.05;4.05;;;;;;;-2.92;55.37;102801.09;5109438;28;20020;-81
2023/02/06 04:54:39;;;;;;;2.70;2.40;;;;;;;-3.13;55.70;102777.44;5075342;28;20028;-82
2023/02/06 04:57:05;;;;;;;3.22;2.92;;;;;;;-3.02;54.99;102801.53;5109532;28;20414;-82
2023/02/06 04:59:30;;;;;;;4.13;2.08;;;;;;;-3.24;53.29;102782.06;5092870;28;20077;-82
2023/02/06 05:01:56;;;;;;;1.30;1.27;;;;;;;-3.03;54.86;102812.47;5075263;28;20034;-81
2023/02/06 05:04:21;;;;;;;3.22;2.00;;;;;;;-2.93;54.25;102814.56;5092370;28;20027;-82
2023/02/06 05:06:47;;;;;;;5.22;3.30;;;;;;;-2.90;54.57;102809.63;5092221;28;20502;-82
2023/02/06 05:09:12;;;;;;;3.13;2.83;;;;;;;-2.94;54.40;102811.19;5109162;28;20024;-82
2023/02/06 05:11:38;;;;;;;8.40;3.85;;;;;;;-3.00;54.59;102813.44;5089505;28;20039;-90
2023/02/06 05:14:03;;;;;;;4.88;1.95;;;;;;;-3.05;52.98;102814.03;5074618;28;20547;-92
2023/02/06 05:16:28;;;;;;;2.45;1.48;;;;;;;-3.04;53.30;102810.75;5108023;28;20042;-86
2023/02/06 05:18:54;;;;;;;1.60;0.80;;;;;;;-3.22;53.26;102800.69;5112382;28;20028;-94
2023/02/06 05:21:20;;;;;;;0.95;0.88;;;;;;;-3.19;53.61;102806.75;5073162;28;20563;-84
2023/02/06 05:23:45;;;;;;;1.15;0.77;;;;;;;-3.10;53.43;102834.13;5091142;28;20438;-88
2023/02/06 05:26:11;;;;;;;3.08;1.70;;;;;;;-3.20;53.96;102817.69;5095083;28;20024;-91
2023/02/06 05:28:36;;;;;;;6.68;2.65;;;;;;;-3.48;53.02;102779.34;5096491;28;20088;-90
2023/02/06 05:31:02;;;;;;;3.30;1.92;;;;;;;-3.10;53.73;102836.66;5113324;28;20414;-87
2023/02/06 05:33:28;;;;;;;1.42;0.88;;;;;;;-3.06;53.96;102837.63;5113700;28;20055;-95
2023/02/06 05:35:53;;;;;;;1.30;1.20;;;;;;;-2.97;53.26;102843.97;5079735;28;20092;-93
2023/02/06 05:38:19;;;;;;;1.27;1.13;;;;;;;-3.14;52.46;102817.09;5128988;23;20068;-90
2023/02/06 05:40:44;;;;;;;2.25;1.35;;;;;;;-3.07;53.95;102840.97;5056178;28;20028;-96
2023/02/06 05:43:11;;;;;;;0.82;0.73;;;;;;;-3.14;54.53;102831.41;5055723;28;20032;-95
2023/02/06 05:45:36;;;;;;;1.42;1.33;;;;;;;-3.00;53.47;102842.97;5077798;28;20144;-92
2023/02/06 05:48:02;;;;;;;2.50;1.42;;;;;;;-3.09;53.41;102833.31;5056755;28;20491;-91
2023/02/06 05:50:27;;;;;;;2.85;1.67;;;;;;;-3.00;53.47;102840.44;5070990;28;20119;-90
2023/02/06 05:52:53;;;;;;;0.57;0.57;;;;;;;-3.15;53.33;102843.19;5044405;28;20549;-93
2023/02/06 05:55:18;;;;;;;1.08;0.98;;;;;;;-3.22;53.11;102836.16;5093039;28;20047;-93
2023/02/06 05:57:44;;;;;;;0.75;0.65;;;;;;;-3.32;53.01;102839.09;5091244;28;20483;-93
2023/02/06 06:00:10;;;;;;;1.38;1.27;;;;;;;-3.49;53.64;102835.81;5073222;28;20468;-94
2023/02/06 06:02:36;;;;;;;0.60;0.32;;;;;;;-3.51;53.35;102845.00;5105251;28;20020;-92
2023/02/06 06:05:01;;;;;;;0.85;0.85;;;;;;;-3.55;54.56;102833.88;5072333;28;20078;-83
2023/02/06 06:07:27;;;;;;;2.08;1.90;;;;;;;-3.66;55.10;102846.84;5086792;28;20036;-82
2023/02/06 06:09:52;;;;;;;2.63;1.20;;;;;;;-3.54;55.73;102852.44;5104935;28;20412;-83
2023/02/06 06:12:18;;;;;;;13.38;3.90;;;;;;;-3.52;53.98;102855.94;5057687;28;20028;-89
2023/02/06 06:14:43;;;;;;;4.43;1.30;;;;;;;-3.39;53.95;102868.31;5063657;28;20036;-91
2023/02/06 06:17:09;;;;;;;3.85;2.97;;;;;;;-3.41;53.53;102858.94;5048873;28;20418;-90
2023/02/06 06:19:34;;;;;;;4.93;2.80;;;;;;;-3.44;56.12;102854.59;5071656;28;20000;-94
2023/02/06 06:22:00;;;;;;;2.20;2.05;;;;;;;-3.37;54.39;102856.59;5134127;22;20079;-91
2023/02/06 06:24:25;;;;;;;1.25;1.23;;;;;;;-3.26;55.01;102859.56;5110902;28;20028;-88
2023/02/06 06:26:51;;;;;;;2.30;1.38;;;;;;;-3.06;55.24;102868.91;5111565;27;20038;-93
2023/02/06 06:29:16;;;;;;;2.05;1.70;;;;;;;-3.04;54.40;102874.06;5092452;28;20405;-89
2023/02/06 06:31:42;;;;;;;3.50;2.55;;;;;;;-3.07;54.17;102872.22;5078430;28;20091;-87
2023/02/06 06:34:08;;;;;;;2.63;2.35;;;;;;;-3.00;53.95;102881.81;5093794;28;20027;-89
2023/02/06 06:36:33;;;;;;;2.38;1.40;;;;;;;-3.00;53.77;102888.56;5103563;28;20057;-90
2023/02/06 06:38:59;;;;;;;3.95;3.30;;;;;;;-2.99;54.98;102882.69;5125350;27;20019;-94
2023/02/06 06:41:24;;;;;;;4.90;1.30;;;;;;;-2.91;54.19;102881.34;5106731;27;20107;-87
2023/02/06 06:43:50;;;;;;;6.72;5.22;;;;;;;-3.06;53.60;102842.69;5114390;27;20401;-83
2023/02/06 06:46:15;;;;;;;2.75;2.53;;;;;;;-2.87;54.78;102875.59;5122685;27;20027;-81
2023/02/06 06:48:41;;;;;;;6.32;4.65;;;;;;;-2.68;53.66;102882.31;5124235;27;20027;-88
2023/02/06 06:51:06;;;;;;;6.28;3.45;;;;;;;-2.71;52.88;102885.59;5130593;27;20020;-92
2023/02/06 06:53:32;;;;;;;5.13;3.50;;;;;;;-2.67;53.73;102884.03;5058984;28;20028;-94
2023/02/06 06:56:03;;;;;;;6.63;5.40;;;;;;;-2.69;53.28;102871.31;5070048;28;20031;-94
2023/02/06 06:58:29;;;;;;;6.63;4.35;;;;;;;-2.69;52.52;102867.91;5087605;28;20036;-87
2023/02/06 07:00:55;;;;;;;3.35;2.75;;;;;;;-2.59;52.83;102892.81;5122070;27;20143;-86
2023/02/06 07:03:20;;;;;;;2.45;2.13;;;;;;;-2.65;53.00;102892.59;5083881;27;20735;-92
2023/02/06 07:05:46;;;;;;;1.25;0.85;;;;;;;-2.66;51.87;102891.69;5108815;28;20032;-88
2023/02/06 07:08:11;;;;;;;4.07;2.10;;;;;;;-2.70;52.30;102894.91;5112324;28;20355;-94
2023/02/06 07:10:37;;;;;;;0.95;0.93;;;;;;;-2.60;52.30;102902.09;5076351;28;20053;-86
2023/02/06 07:13:02;;;;;;;2.20;1.73;;;;;;;-2.53;53.78;102903.22;5094543;28;20031;-89
2023/02/06 07:15:28;;;;;;;0.98;0.85;;;;;;;-2.56;52.36;102897.13;5077537;28;20066;-88
2023/02/06 07:17:53;;;;;;;3.20;0.85;;;;;;;-2.40;52.70;102904.56;5076898;28;20532;-94
2023/02/06 07:20:19;;;;;;;0.30;0.30;;;;;;;-2.47;52.89;102887.38;5121275;27;20034;-90
2023/02/06 07:22:46;;;;;;;2.10;1.90;;;;;;;-2.41;52.46;102913.00;5119135;27;20044;-84
2023/02/06 07:25:12;;;;;;;0.73;0.73;;;;;;;-2.65;52.74;102907.78;5093874;27;20038;-80
2023/02/06 07:27:37;;;;;;;11.50;1.73;;;;;;;-2.55;51.55;102909.03;5112903;27;20031;-78
2023/02/06 07:30:03;;;;;;;3.13;2.83;;;;;;;-2.36;52.81;102916.56;5130041;27;20030;-79
2023/02/06 07:32:28;;;;;;;8.40;3.60;;;;;;;-2.37;52.11;102914.84;5130546;27;20030;-79
2023/02/06 07:34:54;;;;;;;1.98;1.77;;;;;;;-2.42;52.86;102901.13;5105950;28;20032;-90
2023/02/06 07:37:19;;;;;;;2.13;1.92;;;;;;;-2.61;52.50;102890.22;5088572;27;20517;-81
2023/02/06 07:39:45;;;;;;;4.35;1.80;;;;;;;-2.60;53.47;102878.41;5119433;27;20027;-83
2023/02/06 07:42:11;;;;;;;4.68;1.67;;;;;;;-2.45;52.99;102895.94;5102004;27;20494;-89
2023/02/06 07:44:37;;;;;;;1.58;1.48;;;;;;;-2.33;51.95;102916.72;5095501;28;20027;-89
2023/02/06 07:47:02;;;;;;;5.70;1.45;;;;;;;-2.39;51.77;102908.84;5075122;28;20081;-91
2023/02/06 07:49:28;;;;;;;1.45;1.08;;;;;;;-2.14;52.70;102921.72;5036579;28;20030;-95
2023/02/06 07:51:53;;;;;;;2.60;2.40;;;;;;;-2.10;52.05;102920.16;5050571;28;20411;-90
2023/02/06 07:54:18;;;;;;;6.55;2.33;;;;;;;-2.00;51.38;102922.25;5045386;28;20045;-81
2023/02/06 07:56:44;;;;;;;1.42;1.33;;;;;;;-2.08;50.80;102908.38;5047024;28;20021;-85
2023/02/06 07:59:09;;;;;;;3.08;2.50;;;;;;;-1.96;51.87;102913.97;5045431;28;20526;-86
2023/02/06 08:01:35;;;;;;;2.20;2.05;;;;;;;-1.77;52.28;102915.50;5081253;28;20024;-89
2023/02/06 08:04:01;;;;;;;2.15;1.40;;;;;;;-1.71;51.79;102913.22;5036157;28;20116;-87
2023/02/06 08:06:26;;;;;;;25.45;18.30;;;;;;;-1.67;51.06;102912.53;5050771;28;20492;-93
2023/02/06 08:08:54;;;;;;;2.75;2.45;;;;;;;-1.78;50.87;102903.63;5036903;28;20034;-90
2023/02/06 08:11:19;;;;;;;2.65;2.42;;;;;;;-1.69;50.96;102903.97;5048435;28;20040;-88
2023/02/06 08:13:45;;;;;;;2.20;1.63;;;;;;;-1.64;51.00;102911.78;5056534;28;20032;-92
2023/02/06 08:16:13;;;;;;;7.22;2.30;;;;;;;-1.55;50.71;102912.13;5070303;28;20021;-91
2023/02/06 08:18:38;;;;;;;1.90;1.80;;;;;;;-1.71;51.03;102882.75;5052887;28;20036;-85
2023/02/06 08:21:09;;;;;;;0.43;0.43;;;;;;;-1.62;50.79;102905.09;5043498;28;20060;-89
2023/02/06 08:23:35;;;;;;;2.50;1.90;;;;;;;-1.80;50.72;102867.19;5058394;28;20035;-93
2023/02/06 08:26:20;;;;;;;0.40;0.40;;;;;;;-1.61;50.22;102906.81;5073111;28;20029;-92
2023/02/06 08:28:47;;;;;;;0.55;0.50;;;;;;;-1.60;50.92;102909.41;5073369;28;20041;-94
2023/02/06 08:31:30;;;;;;;1.75;1.40;;;;;;;-1.58;50.51;102917.06;5060322;28;20059;-84
2023/02/06 08:33:55;;;;;;;;;;;;;;;-1.53;49.99;102921.53;5052677;28;20101;-93
2023/02/06 08:36:22;;;;;;;0.77;0.77;;;;;;;-1.59;50.21;102906.06;5045990;28;19945;-87
2023/02/06 08:38:48;;;;;;;2.13;1.42;;;;;;;-1.39;50.84;102916.09;5048725;28;20024;-88
2023/02/06 08:41:24;;;;;;;3.17;2.88;;;;;;;-1.25;51.23;102902.22;5045935;28;20033;-90
2023/02/06 08:43:51;;;;;;;1.42;1.33;;;;;;;-1.10;50.02;102912.91;5045577;28;20033;-87
2023/02/06 08:46:17;;;;;;;2.65;1.75;;;;;;;-1.00;51.63;102893.78;5048445;28;20033;-87
2023/02/06 08:48:42;;;;;;;2.28;1.52;;;;;;;-0.93;49.59;102896.59;5012596;28;20071;-88
2023/02/06 08:51:08;;;;;;;9.05;2.15;;;;;;;-0.73;49.69;102901.50;5050139;28;20028;-94
2023/02/06 08:53:34;;;;;;;1.90;1.05;;;;;;;-0.47;48.74;102910.88;5032514;28;20029;-90
2023/02/06 08:56:10;;;;;;;2.67;1.50;;;;;;;-0.28;49.05;102916.56;5048746;28;20091;-91
2023/02/06 08:58:35;;;;;;;0.75;0.73;;;;;;;-0.36;48.60;102917.16;5050541;28;20043;-91
2023/02/06 09:01:08;;;;;;;15.13;1.58;;;;;;;-0.35;47.46;102918.88;5052791;28;20045;-92
2023/02/06 09:03:34;;;;;;;0.75;0.75;;;;;;;-0.67;47.20;102871.22;5053426;28;20028;-90
2023/02/06 09:06:00;;;;;;;0.57;0.52;;;;;;;-0.39;47.12;102924.69;5068850;28;20116;-83
2023/02/06 09:08:26;;;;;;;0.88;0.82;;;;;;;-0.32;47.74;102920.66;5052538;28;20029;-93
2023/02/06 09:10:51;;;;;;;0.75;0.75;;;;;;;-0.25;47.34;102921.72;5035810;28;20090;-93
2023/02/06 09:13:17;;;;;;;0.30;0.30;;;;;;;-0.09;47.80;102916.31;5054684;28;20040;-88
2023/02/06 09:15:48;;;;;;;1.27;1.10;;;;;;;-0.04;45.70;102919.84;5065261;28;20078;-92
2023/02/06 09:18:14;;;;;;;1.67;1.00;;;;;;;0.06;44.74;102926.09;5046437;28;20063;-90
2023/02/06 09:20:39;;;;;;;1.98;1.35;;;;;;;0.12;45.15;102919.53;5035705;28;20267;-90
2023/02/06 09:23:05;;;;;;;4.95;1.33;;;;;;;0.15;45.21;102906.88;5051772;28;20041;-88
2023/02/06 09:25:30;;;;;;;0.95;0.75;;;;;;;0.25;44.18;102916.53;5052536;28;20488;-88
2023/02/06 09:27:56;;;;;;;2.03;0.98;;;;;;;0.28;45.50;102918.28;5053755;28;20033;-92
2023/02/06 09:30:22;;;;;;;2.05;1.50;;;;;;;0.36;44.93;102900.69;5060293;28;20086;-87
2023/02/06 09:32:47;;;;;;;1.40;1.13;;;;;;;0.53;44.93;102909.69;5088200;28;20028;-92
2023/02/06 09:35:13;;;;;;;0.30;0.30;;;;;;;0.72;45.55;102908.53;5054621;28;20044;-92
2023/02/06 09:37:38;;;;;;;1.70;1.17;;;;;;;0.75;46.65;102901.84;5016899;28;20029;-87
2023/02/06 09:40:04;;;;;;;0.77;0.77;;;;;;;0.70;43.08;102898.31;5043880;28;20072;-88
2023/02/06 09:42:39;;;;;;;1.65;1.20;;;;;;;0.57;42.84;102875.84;5056377;28;20430;-82
2023/02/06 09:45:19;;;;;;;1.10;1.05;;;;;;;0.97;45.97;102912.63;5050980;28;20127;-91
2023/02/06 09:47:47;;;;;;;1.00;0.90;;;;;;;1.02;44.64;102906.84;5030846;28;20047;-90
2023/02/06 09:50:15;;;;;;;1.65;1.27;;;;;;;1.17;42.56;102914.00;5053578;28;20058;-90
2023/02/06 09:53:02;;;;;;;1.40;1.02;;;;;;;1.17;43.25;102921.66;5066851;28;20078;-95
2023/02/06 09:55:41;;;;;;;0.98;0.90;;;;;;;1.35;43.02;102908.53;5052756;28;20431;-92
2023/02/06 09:58:25;;;;;;;1.98;1.75;;;;;;;1.45;42.43;102913.03;5040903;28;20025;-93
2023/02/06 10:01:13;;;;;;;2.00;1.60;;;;;;;1.54;41.15;102902.19;5066350;28;20076;-95
2023/02/06 10:03:39;;;;;;;2.38;1.80;;;;;;;1.51;42.06;102871.53;5053447;28;20032;-89
2023/02/06 10:06:26;;;;;;;1.27;0.98;;;;;;;1.75;42.42;102901.84;5071221;28;20408;-90
2023/02/06 10:09:10;;;;;;;0.70;0.63;;;;;;;1.77;41.01;102890.88;5047249;28;20034;-82
2023/02/06 10:11:53;;;;;;;0.68;0.68;;;;;;;1.72;40.36;102903.50;5043545;28;20032;-84
2023/02/06 10:14:39;;;;;;;1.25;1.00;;;;;;;1.72;40.70;102902.66;5048270;28;20563;-81
2023/02/06 10:17:30;;;;;;;2.20;0.88;;;;;;;1.62;41.81;102876.03;5069505;28;20025;-95
2023/02/06 10:19:59;;;;;;;0.52;0.52;;;;;;;1.56;39.88;102875.03;5052105;28;20049;-87
2023/02/06 10:22:48;;;;;;;1.90;1.25;;;;;;;1.67;40.14;102891.44;5036157;28;20048;-89
2023/02/06 10:25:17;;;;;;;1.10;1.05;;;;;;;1.55;38.81;102850.34;5047622;28;20479;-92
2023/02/06 10:27:43;;;;;;;2.67;0.80;;;;;;;1.84;40.65;102876.53;5051394;28;20074;-91
2023/02/06 10:30:17;;;;;;;0.82;0.80;;;;;;;1.85;39.23;102874.03;5052820;28;20479;-90
2023/02/06 10:33:03;;;;;;;0.50;0.43;;;;;;;1.85;37.15;102888.47;5050643;28;20476;-82
2023/02/06 10:35:35;;;;;;;1.60;1.05;;;;;;;2.01;36.72;102888.88;5039310;28;20029;-84
2023/02/06 10:38:22;;;;;;;0.57;0.57;;;;;;;2.22;39.40;102879.94;5051878;28;20425;-81
2023/02/06 10:41:11;;;;;;;1.00;0.82;;;;;;;2.23;39.15;102871.47;5064338;28;20111;-83
2023/02/06 10:43:47;;;;;;;1.92;1.10;;;;;;;2.32;39.05;102858.88;5053360;28;20036;-87
2023/02/06 10:46:41;;;;;;;1.23;1.13;;;;;;;2.64;41.25;102868.88;5044356;28;20103;-89
2023/02/06 10:49:13;;;;;;;2.22;0.80;;;;;;;2.59;38.39;102846.66;5019411;28;20049;-86
2023/02/06 10:51:41;;;;;;;0.90;0.90;;;;;;;2.63;36.64;102852.69;5019727;28;20040;-94
2023/02/06 10:54:48;;;;;;;1.67;1.27;;;;;;;2.69;36.99;102873.25;5040355;28;20030;-90
2023/02/06 10:57:16;;;;;;;0.52;0.50;;;;;;;2.63;37.02;102859.50;5036572;28;20033;-89
2023/02/06 10:59:47;;;;;;;1.15;0.88;;;;;;;2.44;34.28;102853.16;5006916;28;20026;-89
2023/02/06 11:02:23;;;;;;;0.52;0.47;;;;;;;2.65;36.48;102861.25;5011998;28;20033;-90
2023/02/06 11:04:59;;;;;;;2.75;1.10;;;;;;;2.67;34.73;102848.53;5024199;28;20034;-90
2023/02/06 11:07:39;;;;;;;3.97;1.92;;;;;;;2.41;35.04;102815.66;5075739;23;20550;-95
2023/02/06 11:10:06;;;;;;;3.67;2.50;;;;;;;2.83;35.93;102853.06;5061482;28;20060;-91
2023/02/06 11:12:35;;;;;;;1.60;0.93;;;;;;;2.82;37.09;102821.53;5045880;28;20032;-86
2023/02/06 11:15:05;;;;;;;2.03;1.85;;;;;;;2.94;37.71;102843.91;5053501;28;20037;-86
2023/02/06 11:17:30;;;;;;;0.50;0.50;;;;;;;2.81;35.84;102844.50;5054083;28;20035;-91
2023/02/06 11:20:20;;;;;;;0.50;0.50;;;;;;;3.01;36.84;102855.97;5035864;28;20033;-88
2023/02/06 11:22:46;;;;;;;0.93;0.90;;;;;;;3.11;36.34;102856.97;5072297;28;20927;-89
2023/02/06 11:25:28;;;;;;;0.70;0.70;;;;;;;3.11;35.43;102847.63;5047980;28;20124;-84
2023/02/06 11:27:55;;;;;;;1.33;1.23;;;;;;;3.19;35.99;102839.22;5045998;28;20396;-84
2023/02/06 11:30:35;;;;;;;1.63;1.38;;;;;;;3.28;34.73;102850.47;5063536;28;20025;-93
2023/02/06 11:33:38;;;;;;;1.17;0.82;;;;;;;3.38;33.61;102854.91;5068107;28;20036;-90
2023/02/06 11:36:04;;;;;;;0.38;0.38;;;;;;;3.44;35.15;102849.88;5037821;28;20047;-92